Terminal Aerodrome Forecast
Issued by NWS Sioux Falls, SD

Home | Current Version | Previous Version | Graphics & Text | Print | Product List | Glossary On
Versions: 1 2 3 4 5 6 7 8 9 10 11 12 13
000
FTUS43 KFSD 161737
TAFFSD
TAF
KFSD 161737Z 1618/1718 32012KT P6SM SCT012
      TEMPO 1619/1622 BKN012
     FM170000 VRB03KT P6SM SCT008=

USA.gov is the U.S. government's official web portal to all federal, state and local government web resources and services.